sensor_id;sensor_type;location;lat;lon;timestamp;pressure;altitude;pressure_sealevel;temperature;humidity
67434;BME280;54305;47.950;6.572;2023-02-18T00:00:53;95563.44;;;8.20;100.00
67434;BME280;54305;47.950;6.572;2023-02-18T00:03:18;95563.69;;;8.17;100.00
67434;BME280;54305;47.950;6.572;2023-02-18T00:05:43;95561.09;;;8.17;100.00
67434;BME280;54305;47.950;6.572;2023-02-18T00:08:09;95558.72;;;8.14;100.00
67434;BME280;54305;47.950;6.572;2023-02-18T00:10:34;95554.34;;;8.14;100.00
67434;BME280;54305;47.950;6.572;2023-02-18T00:12:59;95551.66;;;8.16;100.00
67434;BME280;54305;47.950;6.572;2023-02-18T00:15:25;95554.75;;;8.21;100.00
67434;BME280;54305;47.950;6.572;2023-02-18T00:17:50;95544.09;;;8.13;100.00
67434;BME280;54305;47.950;6.572;2023-02-18T00:20:16;95539.84;;;8.12;100.00
67434;BME280;54305;47.950;6.572;2023-02-18T00:22:41;95541.75;;;8.10;100.00
67434;BME280;54305;47.950;6.572;2023-02-18T00:25:06;95538.78;;;8.14;100.00
67434;BME280;54305;47.950;6.572;2023-02-18T00:27:32;95534.19;;;8.18;100.00
67434;BME280;54305;47.950;6.572;2023-02-18T00:29:57;95540.09;;;8.20;100.00
67434;BME280;54305;47.950;6.572;2023-02-18T00:32:22;95535.84;;;8.19;100.00
67434;BME280;54305;47.950;6.572;2023-02-18T00:34:47;95535.63;;;8.22;100.00
67434;BME280;54305;47.950;6.572;2023-02-18T00:37:13;95531.47;;;8.19;100.00
67434;BME280;54305;47.950;6.572;2023-02-18T00:39:38;95534.00;;;8.21;100.00
67434;BME280;54305;47.950;6.572;2023-02-18T00:42:03;95521.72;;;8.23;100.00
67434;BME280;54305;47.950;6.572;2023-02-18T00:44:29;95528.81;;;8.21;100.00
67434;BME280;54305;47.950;6.572;2023-02-18T00:46:54;95524.66;;;8.18;100.00
67434;BME280;54305;47.950;6.572;2023-02-18T00:49:19;95528.03;;;8.19;100.00
67434;BME280;54305;47.950;6.572;2023-02-18T00:51:44;95530.44;;;8.22;100.00
67434;BME280;54305;47.950;6.572;2023-02-18T00:54:10;95519.22;;;8.21;100.00
67434;BME280;54305;47.950;6.572;2023-02-18T00:56:35;95515.91;;;8.19;100.00
67434;BME280;54305;47.950;6.572;2023-02-18T00:59:00;95517.59;;;8.20;100.00
67434;BME280;54305;47.950;6.572;2023-02-18T01:01:25;95509.69;;;8.22;100.00
67434;BME280;54305;47.950;6.572;2023-02-18T01:03:51;95515.06;;;8.19;100.00
67434;BME280;54305;47.950;6.572;2023-02-18T01:06:17;95516.53;;;8.23;100.00
67434;BME280;54305;47.950;6.572;2023-02-18T01:08:42;95504.50;;;8.22;100.00
67434;BME280;54305;47.950;6.572;2023-02-18T01:11:08;95500.25;;;8.21;100.00
67434;BME280;54305;47.950;6.572;2023-02-18T01:13:33;95502.59;;;8.24;100.00
67434;BME280;54305;47.950;6.572;2023-02-18T01:15:59;95502.84;;;8.21;100.00
67434;BME280;54305;47.950;6.572;2023-02-18T01:18:25;95499.19;;;8.23;100.00
67434;BME280;54305;47.950;6.572;2023-02-18T01:20:50;95503.56;;;8.23;100.00
67434;BME280;54305;47.950;6.572;2023-02-18T01:23:15;95510.28;;;8.25;100.00
67434;BME280;54305;47.950;6.572;2023-02-18T01:25:41;95510.03;;;8.28;100.00
67434;BME280;54305;47.950;6.572;2023-02-18T01:28:06;95501.91;;;8.22;100.00
67434;BME280;54305;47.950;6.572;2023-02-18T01:30:32;95499.09;;;8.25;100.00
67434;BME280;54305;47.950;6.572;2023-02-18T01:32:57;95502.59;;;8.24;100.00
67434;BME280;54305;47.950;6.572;2023-02-18T01:35:22;95509.47;;;8.25;100.00
67434;BME280;54305;47.950;6.572;2023-02-18T01:37:48;95511.09;;;8.26;100.00
67434;BME280;54305;47.950;6.572;2023-02-18T01:40:15;95501.56;;;8.26;100.00
67434;BME280;54305;47.950;6.572;2023-02-18T01:42:41;95498.25;;;8.24;100.00
67434;BME280;54305;47.950;6.572;2023-02-18T01:47:50;95495.38;;;8.16;100.00
67434;BME280;54305;47.950;6.572;2023-02-18T01:50:16;95486.06;;;8.14;100.00
67434;BME280;54305;47.950;6.572;2023-02-18T01:52:41;95491.03;;;8.17;100.00
67434;BME280;54305;47.950;6.572;2023-02-18T01:55:06;95494.13;;;8.22;100.00
67434;BME280;54305;47.950;6.572;2023-02-18T01:57:34;95498.34;;;8.23;100.00
67434;BME280;54305;47.950;6.572;2023-02-18T02:00:05;95506.88;;;8.25;100.00
67434;BME280;54305;47.950;6.572;2023-02-18T02:02:31;95502.59;;;8.24;100.00
67434;BME280;54305;47.950;6.572;2023-02-18T02:04:57;95501.78;;;8.23;100.00
67434;BME280;54305;47.950;6.572;2023-02-18T02:07:23;95505.69;;;8.29;100.00
67434;BME280;54305;47.950;6.572;2023-02-18T02:09:50;95509.22;;;8.28;100.00
67434;BME280;54305;47.950;6.572;2023-02-18T02:17:36;95499.88;;;8.25;100.00
67434;BME280;54305;47.950;6.572;2023-02-18T02:28:09;95482.34;;;8.29;100.00
67434;BME280;54305;47.950;6.572;2023-02-18T02:33:33;95470.06;;;8.31;100.00
67434;BME280;54305;47.950;6.572;2023-02-18T02:38:39;95466.63;;;8.30;100.00
67434;BME280;54305;47.950;6.572;2023-02-18T02:43:47;95461.81;;;8.26;100.00
67434;BME280;54305;47.950;6.572;2023-02-18T02:46:21;95458.97;;;8.29;100.00
67434;BME280;54305;47.950;6.572;2023-02-18T02:53:46;95445.75;;;8.32;100.00
67434;BME280;54305;47.950;6.572;2023-02-18T02:56:20;95446.69;;;8.31;100.00
67434;BME280;54305;47.950;6.572;2023-02-18T02:58:46;95440.56;;;8.32;100.00
67434;BME280;54305;47.950;6.572;2023-02-18T03:04:26;95448.34;;;8.32;100.00
67434;BME280;54305;47.950;6.572;2023-02-18T03:12:33;95460.72;;;8.39;100.00
67434;BME280;54305;47.950;6.572;2023-02-18T03:17:29;95446.78;;;8.40;100.00
67434;BME280;54305;47.950;6.572;2023-02-18T03:20:02;95447.63;;;8.41;100.00
67434;BME280;54305;47.950;6.572;2023-02-18T03:22:31;95445.97;;;8.40;100.00
67434;BME280;54305;47.950;6.572;2023-02-18T03:24:57;95445.72;;;8.43;100.00
67434;BME280;54305;47.950;6.572;2023-02-18T03:29:54;95443.28;;;8.41;100.00
67434;BME280;54305;47.950;6.572;2023-02-18T03:32:21;95451.75;;;8.43;100.00
67434;BME280;54305;47.950;6.572;2023-02-18T03:34:49;95441.25;;;8.45;100.00
67434;BME280;54305;47.950;6.572;2023-02-18T03:37:17;95437.00;;;8.44;100.00
67434;BME280;54305;47.950;6.572;2023-02-18T03:39:43;95445.72;;;8.43;100.00
67434;BME280;54305;47.950;6.572;2023-02-18T03:42:10;95440.78;;;8.40;100.00
67434;BME280;54305;47.950;6.572;2023-02-18T03:44:35;95436.41;;;8.40;100.00
67434;BME280;54305;47.950;6.572;2023-02-18T03:47:00;95436.16;;;8.43;100.00
67434;BME280;54305;47.950;6.572;2023-02-18T03:49:26;95435.34;;;8.43;100.00
67434;BME280;54305;47.950;6.572;2023-02-18T03:51:51;95439.72;;;8.42;100.00
67434;BME280;54305;47.950;6.572;2023-02-18T03:54:16;95438.75;;;8.43;100.00
67434;BME280;54305;47.950;6.572;2023-02-18T03:56:42;95434.53;;;8.42;100.00
67434;BME280;54305;47.950;6.572;2023-02-18T03:59:07;95431.56;;;8.47;100.00
67434;BME280;54305;47.950;6.572;2023-02-18T04:01:33;95429.91;;;8.46;100.00
67434;BME280;54305;47.950;6.572;2023-02-18T04:03:59;95434.88;;;8.49;100.00
67434;BME280;54305;47.950;6.572;2023-02-18T04:06:25;95423.06;;;8.45;100.00
67434;BME280;54305;47.950;6.572;2023-02-18T04:08:50;95428.84;;;8.48;100.00
67434;BME280;54305;47.950;6.572;2023-02-18T04:11:15;95419.53;;;8.46;100.00
67434;BME280;54305;47.950;6.572;2023-02-18T04:13:41;95434.41;;;8.44;100.00
67434;BME280;54305;47.950;6.572;2023-02-18T04:16:06;95428.00;;;8.48;100.00
67434;BME280;54305;47.950;6.572;2023-02-18T04:18:31;95436.75;;;8.47;100.00
67434;BME280;54305;47.950;6.572;2023-02-18T04:20:56;95428.00;;;8.48;100.00
67434;BME280;54305;47.950;6.572;2023-02-18T04:23:22;95431.56;;;8.47;100.00
67434;BME280;54305;47.950;6.572;2023-02-18T04:25:47;95432.63;;;8.44;100.00
67434;BME280;54305;47.950;6.572;2023-02-18T04:28:13;95419.53;;;8.46;100.00
67434;BME280;54305;47.950;6.572;2023-02-18T04:30:39;95425.78;;;8.43;100.00
67434;BME280;54305;47.950;6.572;2023-02-18T04:33:04;95416.25;;;8.44;100.00
67434;BME280;54305;47.950;6.572;2023-02-18T04:35:29;95424.94;;;8.43;100.00
67434;BME280;54305;47.950;6.572;2023-02-18T04:37:55;95422.34;;;8.43;100.00
67434;BME280;54305;47.950;6.572;2023-02-18T04:40:20;95432.03;;;8.41;100.00
67434;BME280;54305;47.950;6.572;2023-02-18T04:42:45;95424.38;;;8.39;100.00
67434;BME280;54305;47.950;6.572;2023-02-18T04:45:10;95427.94;;;8.38;100.00
67434;BME280;54305;47.950;6.572;2023-02-18T04:47:36;95420.03;;;8.40;100.00
67434;BME280;54305;47.950;6.572;2023-02-18T04:50:01;95421.66;;;8.41;100.00
67434;BME280;54305;47.950;6.572;2023-02-18T04:52:26;95422.50;;;8.41;100.00
67434;BME280;54305;47.950;6.572;2023-02-18T04:54:51;95420.25;;;8.37;100.00
67434;BME280;54305;47.950;6.572;2023-02-18T04:57:17;95428.63;;;8.40;100.00
67434;BME280;54305;47.950;6.572;2023-02-18T04:59:42;95424.25;;;8.41;100.00
67434;BME280;54305;47.950;6.572;2023-02-18T05:02:07;95421.91;;;8.38;100.00
67434;BME280;54305;47.950;6.572;2023-02-18T05:04:33;95421.91;;;8.38;100.00
67434;BME280;54305;47.950;6.572;2023-02-18T05:06:58;95421.66;;;8.41;100.00
67434;BME280;54305;47.950;6.572;2023-02-18T05:09:23;95419.75;;;8.43;100.00
67434;BME280;54305;47.950;6.572;2023-02-18T05:11:48;95405.13;;;8.42;100.00
67434;BME280;54305;47.950;6.572;2023-02-18T05:14:14;95407.50;;;8.45;100.00
67434;BME280;54305;47.950;6.572;2023-02-18T05:16:40;95414.56;;;8.43;100.00
67434;BME280;54305;47.950;6.572;2023-02-18T05:19:05;95411.06;;;8.44;100.00
67434;BME280;54305;47.950;6.572;2023-02-18T05:21:30;95421.44;;;8.44;100.00
67434;BME280;54305;47.950;6.572;2023-02-18T05:23:56;95406.78;;;8.43;100.00
67434;BME280;54305;47.950;6.572;2023-02-18T05:26:21;95404.19;;;8.43;100.00
67434;BME280;54305;47.950;6.572;2023-02-18T05:28:46;95402.53;;;8.42;100.00
67434;BME280;54305;47.950;6.572;2023-02-18T05:31:11;95421.66;;;8.41;100.00
67434;BME280;54305;47.950;6.572;2023-02-18T05:33:37;95411.63;;;8.47;100.00
67434;BME280;54305;47.950;6.572;2023-02-18T05:36:02;95402.53;;;8.42;100.00
67434;BME280;54305;47.950;6.572;2023-02-18T05:38:27;95408.47;;;8.44;100.00
67434;BME280;54305;47.950;6.572;2023-02-18T05:40:53;95411.97;;;8.43;100.00
67434;BME280;54305;47.950;6.572;2023-02-18T05:43:19;95411.16;;;8.42;100.00
67434;BME280;54305;47.950;6.572;2023-02-18T05:45:44;95407.50;;;8.45;100.00
67434;BME280;54305;47.950;6.572;2023-02-18T05:48:09;95405.03;;;8.43;100.00
67434;BME280;54305;47.950;6.572;2023-02-18T05:50:34;95406.66;;;8.44;100.00
67434;BME280;54305;47.950;6.572;2023-02-18T05:53:00;95401.47;;;8.44;100.00
67434;BME280;54305;47.950;6.572;2023-02-18T05:55:25;95417.88;;;8.45;100.00
67434;BME280;54305;47.950;6.572;2023-02-18T05:57:50;95405.03;;;8.43;100.00
67434;BME280;54305;47.950;6.572;2023-02-18T06:00:16;95405.03;;;8.43;100.00
67434;BME280;54305;47.950;6.572;2023-02-18T06:02:41;95416.34;;;8.42;100.00
67434;BME280;54305;47.950;6.572;2023-02-18T06:05:07;95407.72;;;8.42;100.00
67434;BME280;54305;47.950;6.572;2023-02-18T06:07:32;95409.75;;;8.38;100.00
67434;BME280;54305;47.950;6.572;2023-02-18T06:09:58;95409.63;;;8.40;100.00
67434;BME280;54305;47.950;6.572;2023-02-18T06:12:23;95407.03;;;8.40;100.00
67434;BME280;54305;47.950;6.572;2023-02-18T06:14:48;95404.69;;;8.37;100.00
67434;BME280;54305;47.950;6.572;2023-02-18T06:17:14;95397.84;;;8.36;100.00
67434;BME280;54305;47.950;6.572;2023-02-18T06:19:39;95408.47;;;8.33;100.00
67434;BME280;54305;47.950;6.572;2023-02-18T06:22:05;95398.81;;;8.35;100.00
67434;BME280;54305;47.950;6.572;2023-02-18T06:24:30;95407.53;;;8.34;100.00
67434;BME280;54305;47.950;6.572;2023-02-18T06:26:56;95406.31;;;8.38;100.00
67434;BME280;54305;47.950;6.572;2023-02-18T06:29:21;95408.91;;;8.38;100.00
67434;BME280;54305;47.950;6.572;2023-02-18T06:31:47;95401.13;;;8.38;100.00
67434;BME280;54305;47.950;6.572;2023-02-18T06:34:12;95408.22;;;8.36;100.00
67434;BME280;54305;47.950;6.572;2023-02-18T06:36:37;95406.59;;;8.35;100.00
67434;BME280;54305;47.950;6.572;2023-02-18T06:39:03;95412.28;;;8.29;100.00
67434;BME280;54305;47.950;6.572;2023-02-18T06:41:29;95400.22;;;8.28;100.00
67434;BME280;54305;47.950;6.572;2023-02-18T06:43:54;95407.19;;;8.27;100.00
67434;BME280;54305;47.950;6.572;2023-02-18T06:46:19;95404.34;;;8.30;100.00
67434;BME280;54305;47.950;6.572;2023-02-18T06:48:45;95401.63;;;8.32;100.00
67434;BME280;54305;47.950;6.572;2023-02-18T06:51:10;95399.75;;;8.34;100.00
67434;BME280;54305;47.950;6.572;2023-02-18T06:53:35;95400.69;;;8.33;100.00
67434;BME280;54305;47.950;6.572;2023-02-18T06:56:01;95400.56;;;8.34;100.00
67434;BME280;54305;47.950;6.572;2023-02-18T06:58:26;95401.63;;;8.32;100.00
67434;BME280;54305;47.950;6.572;2023-02-18T07:00:51;95408.47;;;8.33;100.00
67434;BME280;54305;47.950;6.572;2023-02-18T07:03:16;95412.00;;;8.32;100.00
67434;BME280;54305;47.950;6.572;2023-02-18T07:05:42;95410.25;;;8.32;100.00
67434;BME280;54305;47.950;6.572;2023-02-18T07:08:07;95406.00;;;8.31;100.00
67434;BME280;54305;47.950;6.572;2023-02-18T07:10:32;95412.00;;;8.32;100.00
67434;BME280;54305;47.950;6.572;2023-02-18T07:12:58;95412.72;;;8.34;100.00
67434;BME280;54305;47.950;6.572;2023-02-18T07:15:23;95415.31;;;8.34;100.00
67434;BME280;54305;47.950;6.572;2023-02-18T07:17:49;95412.00;;;8.32;100.00
67434;BME280;54305;47.950;6.572;2023-02-18T07:20:15;95419.44;;;8.36;100.00
67434;BME280;54305;47.950;6.572;2023-02-18T07:22:40;95422.38;;;8.32;100.00
67434;BME280;54305;47.950;6.572;2023-02-18T07:25:06;95419.78;;;8.32;100.00
67434;BME280;54305;47.950;6.572;2023-02-18T07:27:31;95414.59;;;8.32;100.00
67434;BME280;54305;47.950;6.572;2023-02-18T07:29:57;95410.38;;;8.31;100.00
67434;BME280;54305;47.950;6.572;2023-02-18T07:32:22;95417.91;;;8.34;100.00
67434;BME280;54305;47.950;6.572;2023-02-18T07:34:49;95424.97;;;8.32;100.00
67434;BME280;54305;47.950;6.572;2023-02-18T07:37:15;95424.28;;;8.30;100.00
67434;BME280;54305;47.950;6.572;2023-02-18T07:39:41;95415.56;;;8.31;100.00
67434;BME280;54305;47.950;6.572;2023-02-18T07:42:07;95419.34;;;8.27;100.00
67434;BME280;54305;47.950;6.572;2023-02-18T07:44:33;95420.97;;;8.28;100.00
67434;BME280;54305;47.950;6.572;2023-02-18T07:46:58;95421.22;;;8.25;100.00
67434;BME280;54305;47.950;6.572;2023-02-18T07:49:24;95424.53;;;8.27;100.00
67434;BME280;54305;47.950;6.572;2023-02-18T07:51:49;95422.88;;;8.26;100.00
67434;BME280;54305;47.950;6.572;2023-02-18T07:54:15;95428.06;;;8.26;100.00
67434;BME280;54305;47.950;6.572;2023-02-18T07:56:40;95424.53;;;8.27;100.00
67434;BME280;54305;47.950;6.572;2023-02-18T07:59:07;95428.06;;;8.26;100.00
67434;BME280;54305;47.950;6.572;2023-02-18T08:01:33;95426.16;;;8.28;100.00
67434;BME280;54305;47.950;6.572;2023-02-18T08:04:00;95429.47;;;8.30;100.00
67434;BME280;54305;47.950;6.572;2023-02-18T08:06:30;95426.16;;;8.28;100.00
67434;BME280;54305;47.950;6.572;2023-02-18T08:08:57;95429.47;;;8.30;100.00
67434;BME280;54305;47.950;6.572;2023-02-18T08:11:24;95434.66;;;8.30;100.00
67434;BME280;54305;47.950;6.572;2023-02-18T08:13:49;95437.97;;;8.32;100.00
67434;BME280;54305;47.950;6.572;2023-02-18T08:16:15;95427.84;;;8.29;100.00
67434;BME280;54305;47.950;6.572;2023-02-18T08:18:41;95439.13;;;8.28;100.00
67434;BME280;54305;47.950;6.572;2023-02-18T08:21:06;95429.94;;;8.35;100.00
67434;BME280;54305;47.950;6.572;2023-02-18T08:23:31;95435.13;;;8.35;100.00
67434;BME280;54305;47.950;6.572;2023-02-18T08:25:56;95429.22;;;8.33;100.00
67434;BME280;54305;47.950;6.572;2023-02-18T08:28:22;95420.50;;;8.34;100.00
67434;BME280;54305;47.950;6.572;2023-02-18T08:30:49;95420.50;;;8.34;100.00
67434;BME280;54305;47.950;6.572;2023-02-18T08:33:14;95420.50;;;8.34;100.00
67434;BME280;54305;47.950;6.572;2023-02-18T08:35:40;95420.75;;;8.31;100.00
67434;BME280;54305;47.950;6.572;2023-02-18T08:38:05;95415.31;;;8.34;100.00
67434;BME280;54305;47.950;6.572;2023-02-18T08:40:30;95420.03;;;8.40;100.00
67434;BME280;54305;47.950;6.572;2023-02-18T08:42:56;95426.84;;;8.41;100.00
67434;BME280;54305;47.950;6.572;2023-02-18T08:45:21;95422.38;;;8.32;100.00
67434;BME280;54305;47.950;6.572;2023-02-18T08:47:46;95423.81;;;8.36;100.00
67434;BME280;54305;47.950;6.572;2023-02-18T08:50:12;95429.84;;;8.36;100.00
67434;BME280;54305;47.950;6.572;2023-02-18T08:52:37;95418.13;;;8.42;100.00
67434;BME280;54305;47.950;6.572;2023-02-18T08:55:03;95422.63;;;8.40;100.00
67434;BME280;54305;47.950;6.572;2023-02-18T08:57:28;95421.66;;;8.41;100.00
67434;BME280;54305;47.950;6.572;2023-02-18T08:59:53;95414.34;;;8.46;100.00
67434;BME280;54305;47.950;6.572;2023-02-18T09:02:19;95415.28;;;8.45;100.00
67434;BME280;54305;47.950;6.572;2023-02-18T09:04:44;95414.34;;;8.46;100.00
67434;BME280;54305;47.950;6.572;2023-02-18T09:07:10;95416.25;;;8.44;100.00
67434;BME280;54305;47.950;6.572;2023-02-18T09:09:35;95418.34;;;8.50;100.00
67434;BME280;54305;47.950;6.572;2023-02-18T09:12:00;95423.16;;;8.54;100.00
67434;BME280;54305;47.950;6.572;2023-02-18T09:14:26;95418.31;;;8.61;100.00
67434;BME280;54305;47.950;6.572;2023-02-18T09:16:51;95428.44;;;8.64;100.00
67434;BME280;54305;47.950;6.572;2023-02-18T09:19:16;95427.78;;;8.51;100.00
67434;BME280;54305;47.950;6.572;2023-02-18T09:21:42;95431.06;;;8.53;100.00
67434;BME280;54305;47.950;6.572;2023-02-18T09:24:07;95417.16;;;8.54;100.00
67434;BME280;54305;47.950;6.572;2023-02-18T09:26:33;95433.91;;;8.50;100.00
67434;BME280;54305;47.950;6.572;2023-02-18T09:28:58;95432.00;;;8.52;100.00
67434;BME280;54305;47.950;6.572;2023-02-18T09:31:24;95428.69;;;8.61;100.00
67434;BME280;54305;47.950;6.572;2023-02-18T09:33:54;95427.72;;;8.62;100.00
67434;BME280;54305;47.950;6.572;2023-02-18T09:36:20;95433.41;;;8.56;100.00
67434;BME280;54305;47.950;6.572;2023-02-18T09:38:45;95435.22;;;8.55;100.00
67434;BME280;54305;47.950;6.572;2023-02-18T09:43:47;95412.78;;;8.54;100.00
67434;BME280;54305;47.950;6.572;2023-02-18T09:46:25;95428.69;;;8.61;100.00
67434;BME280;54305;47.950;6.572;2023-02-18T09:48:52;95421.84;;;8.60;100.00
67434;BME280;54305;47.950;6.572;2023-02-18T09:51:17;95424.91;;;8.65;100.00
67434;BME280;54305;47.950;6.572;2023-02-18T09:53:43;95418.13;;;8.73;100.00
67434;BME280;54305;47.950;6.572;2023-02-18T09:56:10;95412.38;;;8.70;100.00
67434;BME280;54305;47.950;6.572;2023-02-18T09:58:36;95417.06;;;8.76;100.00
67434;BME280;54305;47.950;6.572;2023-02-18T10:01:14;95410.91;;;8.77;100.00
67434;BME280;54305;47.950;6.572;2023-02-18T10:03:41;95410.47;;;8.72;100.00
67434;BME280;54305;47.950;6.572;2023-02-18T10:09:03;95417.00;;;8.66;100.00
67434;BME280;54305;47.950;6.572;2023-02-18T10:11:31;95413.31;;;8.69;100.00
67434;BME280;54305;47.950;6.572;2023-02-18T10:13:58;95411.19;;;8.74;100.00
67434;BME280;54305;47.950;6.572;2023-02-18T10:16:25;95403.13;;;8.77;100.00
67434;BME280;54305;47.950;6.572;2023-02-18T10:18:55;95404.06;;;8.76;100.00
67434;BME280;54305;47.950;6.572;2023-02-18T10:21:23;95403.63;;;8.71;100.00
67434;BME280;54305;47.950;6.572;2023-02-18T10:26:15;95394.66;;;8.75;100.00
67434;BME280;54305;47.950;6.572;2023-02-18T10:28:41;95395.84;;;8.71;100.00
67434;BME280;54305;47.950;6.572;2023-02-18T10:31:08;95394.41;;;8.78;100.00
67434;BME280;54305;47.950;6.572;2023-02-18T10:33:35;95387.31;;;8.80;100.00
67434;BME280;54305;47.950;6.572;2023-02-18T10:43:39;95383.91;;;9.00;100.00
67434;BME280;54305;47.950;6.572;2023-02-18T10:50:59;95385.53;;;9.21;100.00
67434;BME280;54305;47.950;6.572;2023-02-18T10:55:51;95394.38;;;9.09;100.00
67434;BME280;54305;47.950;6.572;2023-02-18T11:00:48;95390.25;;;9.07;100.00
67434;BME280;54305;47.950;6.572;2023-02-18T11:03:15;95391.06;;;9.07;100.00
67434;BME280;54305;47.950;6.572;2023-02-18T11:05:41;95408.16;;;9.10;100.00
67434;BME280;54305;47.950;6.572;2023-02-18T11:08:08;95392.47;;;9.11;100.00
67434;BME280;54305;47.950;6.572;2023-02-18T11:10:37;95406.72;;;9.17;100.00
67434;BME280;54305;47.950;6.572;2023-02-18T11:13:05;95402.06;;;9.11;100.00
67434;BME280;54305;47.950;6.572;2023-02-18T11:15:31;95423.88;;;9.08;100.00
67434;BME280;54305;47.950;6.572;2023-02-18T11:17:57;95405.09;;;9.16;100.00
67434;BME280;54305;47.950;6.572;2023-02-18T11:20:35;95404.94;;;9.17;100.00
67434;BME280;54305;47.950;6.572;2023-02-18T11:25:27;95399.25;;;9.23;100.00
67434;BME280;54305;47.950;6.572;2023-02-18T11:27:58;95397.22;;;9.27;100.00
67434;BME280;54305;47.950;6.572;2023-02-18T11:30:34;95398.63;;;9.31;100.00
67434;BME280;54305;47.950;6.572;2023-02-18T11:33:19;95394.75;;;9.25;100.00
67434;BME280;54305;47.950;6.572;2023-02-18T11:35:52;95389.22;;;9.19;100.00
67434;BME280;54305;47.950;6.572;2023-02-18T11:39:03;95395.81;;;9.23;100.00
67434;BME280;54305;47.950;6.572;2023-02-18T11:41:07;95390.63;;;9.23;100.00
67434;BME280;54305;47.950;6.572;2023-02-18T11:43:33;95397.47;;;9.24;100.00
67434;BME280;54305;47.950;6.572;2023-02-18T11:46:18;95411.41;;;9.23;100.00
67434;BME280;54305;47.950;6.572;2023-02-18T11:48:44;95388.22;;;9.31;100.00
67434;BME280;54305;47.950;6.572;2023-02-18T11:53:52;95381.06;;;9.23;100.00
67434;BME280;54305;47.950;6.572;2023-02-18T11:56:17;95377.19;;;9.18;100.00
67434;BME280;54305;47.950;6.572;2023-02-18T11:58:45;95379.53;;;9.21;100.00
67434;BME280;54305;47.950;6.572;2023-02-18T12:01:17;95368.94;;;9.13;100.00
67434;BME280;54305;47.950;6.572;2023-02-18T12:04:04;95371.22;;;9.27;100.00
67434;BME280;54305;47.950;6.572;2023-02-18T12:06:32;95366.66;;;9.40;100.00
67434;BME280;54305;47.950;6.572;2023-02-18T12:11:51;95350.25;;;9.49;100.00
67434;BME280;54305;47.950;6.572;2023-02-18T12:14:21;95337.00;;;9.52;100.00
67434;BME280;54305;47.950;6.572;2023-02-18T12:16:51;95340.59;;;9.60;100.00
67434;BME280;54305;47.950;6.572;2023-02-18T12:19:30;95348.03;;;9.65;100.00
67434;BME280;54305;47.950;6.572;2023-02-18T12:27:16;95339.00;;;9.69;100.00
67434;BME280;54305;47.950;6.572;2023-02-18T12:29:49;95334.22;;;9.74;100.00
67434;BME280;54305;47.950;6.572;2023-02-18T12:32:22;95329.03;;;9.74;100.00
67434;BME280;54305;47.950;6.572;2023-02-18T12:37:39;95307.88;;;9.58;100.00
67434;BME280;54305;47.950;6.572;2023-02-18T12:45:29;95306.84;;;9.70;100.00
67434;BME280;54305;47.950;6.572;2023-02-18T12:55:34;95306.00;;;9.69;100.00
67434;BME280;54305;47.950;6.572;2023-02-18T13:03:24;95295.59;;;9.69;100.00
67434;BME280;54305;47.950;6.572;2023-02-18T13:13:33;95280.34;;;9.95;100.00
67434;BME280;54305;47.950;6.572;2023-02-18T13:16:02;95282.03;;;10.15;100.00
67434;BME280;54305;47.950;6.572;2023-02-18T13:18:38;95278.72;;;10.70;100.00
67434;BME280;54305;47.950;6.572;2023-02-18T13:21:08;95281.22;;;10.43;100.00
67434;BME280;54305;47.950;6.572;2023-02-18T13:23:48;95274.09;;;10.26;100.00
67434;BME280;54305;47.950;6.572;2023-02-18T13:26:15;95275.44;;;10.11;100.00
67434;BME280;54305;47.950;6.572;2023-02-18T13:28:48;95269.97;;;10.14;100.00
67434;BME280;54305;47.950;6.572;2023-02-18T13:33:53;95275.19;;;10.33;100.00
67434;BME280;54305;47.950;6.572;2023-02-18T13:41:17;95265.34;;;10.27;100.00
67434;BME280;54305;47.950;6.572;2023-02-18T13:43:43;95265.59;;;10.43;100.00
67434;BME280;54305;47.950;6.572;2023-02-18T13:48:54;95265.75;;;10.32;100.00
67434;BME280;54305;47.950;6.572;2023-02-18T13:53:55;95269.69;;;10.17;100.00
67434;BME280;54305;47.950;6.572;2023-02-18T13:56:26;95265.03;;;10.11;100.00
67434;BME280;54305;47.950;6.572;2023-02-18T14:01:41;95259.84;;;10.30;100.00
67434;BME280;54305;47.950;6.572;2023-02-18T14:09:35;95253.22;;;10.83;100.00
67434;BME280;54305;47.950;6.572;2023-02-18T14:14:46;95234.25;;;11.00;100.00
67434;BME280;54305;47.950;6.572;2023-02-18T14:17:12;95241.16;;;10.82;100.00
67434;BME280;54305;47.950;6.572;2023-02-18T14:19:38;95230.22;;;10.59;100.00
67434;BME280;54305;47.950;6.572;2023-02-18T14:24:48;95233.25;;;10.36;100.00
67434;BME280;54305;47.950;6.572;2023-02-18T14:27:14;95231.34;;;10.38;100.00
67434;BME280;54305;47.950;6.572;2023-02-18T14:29:40;95232.97;;;10.39;100.00
67434;BME280;54305;47.950;6.572;2023-02-18T14:32:09;95229.72;;;10.37;100.00
67434;BME280;54305;47.950;6.572;2023-02-18T14:37:10;95213.09;;;10.28;100.00
67434;BME280;54305;47.950;6.572;2023-02-18T14:39:40;95222.56;;;10.20;100.00
67434;BME280;54305;47.950;6.572;2023-02-18T14:50:08;95202.41;;;10.22;100.00
67434;BME280;54305;47.950;6.572;2023-02-18T14:55:04;95208.59;;;10.21;100.00
67434;BME280;54305;47.950;6.572;2023-02-18T14:57:35;95208.75;;;10.29;100.00
67434;BME280;54305;47.950;6.572;2023-02-18T15:00:03;95198.31;;;10.29;100.00
67434;BME280;54305;47.950;6.572;2023-02-18T15:02:29;95188.97;;;10.36;100.00
67434;BME280;54305;47.950;6.572;2023-02-18T15:05:06;95195.97;;;10.45;100.00
67434;BME280;54305;47.950;6.572;2023-02-18T15:07:35;95204.75;;;10.44;100.00
67434;BME280;54305;47.950;6.572;2023-02-18T15:10:00;95198.72;;;10.34;100.00
67434;BME280;54305;47.950;6.572;2023-02-18T15:12:25;95202.03;;;10.26;100.00
67434;BME280;54305;47.950;6.572;2023-02-18T15:14:51;95194.63;;;10.22;100.00
67434;BME280;54305;47.950;6.572;2023-02-18T15:17:18;95190.66;;;10.18;100.00
67434;BME280;54305;47.950;6.572;2023-02-18T15:22:39;95201.78;;;10.10;100.00
67434;BME280;54305;47.950;6.572;2023-02-18T15:25:04;95191.06;;;10.04;100.00
67434;BME280;54305;47.950;6.572;2023-02-18T15:27:31;95192.72;;;10.05;100.00
67434;BME280;54305;47.950;6.572;2023-02-18T15:30:01;95190.78;;;10.07;100.00